Terminal Aerodrome Forecast
Issued by NWS

Home | Current Version | Previous Version | Text Only | Print | Product List | Glossary On
Versions: 1 2 3 4 5 6 7 8 9 10 11 12 13 14 15 16 17 18
000
FTUS44 KEPZ 300534
TAFTCS
TAF
KTCS 300534Z 3006/3106 35006KT P6SM VCTS FEW020 SCT040CB OVC100
      TEMPO 3006/3009 VRB15G25KT 5SM TSRA BKN040CB OVC060
     FM300900 33007KT P6SM SCT030 BKN080 OVC120
     FM301500 06008KT P6SM FEW050 BKN120
     FM302200 15010KT P6SM VCTS SCT060CB BKN120=

USA.gov is the U.S. government's official web portal to all federal, state and local government web resources and services.